Time;durP1;ratioP1;P1;durP2;ratioP2;P2;SDS_P1;SDS_P2;PMS_P1;PMS_P2;Temp;Humidity;BMP_temperature;BMP_pressure;BME280_temperature;BME280_humidity;BME280_pressure;Samples;Min_cycle;Max_cycle;Signal;HPM_P1;HPM_P2
2022/10/18 00:02:29;;;;;;;12.60;5.95;;;;;;;19.86;72.85;101213.44;10293329;28;20051;-65
2022/10/18 00:07:30;;;;;;;10.07;6.18;;;;;;;19.46;74.30;101219.00;10307545;28;20055;-66
2022/10/18 00:12:36;;;;;;;11.02;5.70;;;;;;;19.29;74.95;101215.88;10280497;28;20070;-65
2022/10/18 00:17:38;;;;;;;12.63;6.00;;;;;;;19.25;75.52;101211.91;10303160;28;20067;-64
2022/10/18 00:22:40;;;;;;;14.15;5.88;;;;;;;19.25;75.36;101201.81;10303622;28;20046;-64
2022/10/18 00:27:41;;;;;;;12.40;4.93;;;;;;;19.28;75.20;101193.25;10305222;28;20704;-63
2022/10/18 00:32:43;;;;;;;13.60;6.40;;;;;;;19.25;75.27;101192.81;10306023;28;20493;-63
2022/10/18 00:37:44;;;;;;;13.18;8.45;;;;;;;19.26;75.43;101181.72;10305988;28;20078;-63
2022/10/18 00:42:45;;;;;;;14.73;8.55;;;;;;;19.26;75.41;101184.44;10307801;28;20146;-63
2022/10/18 00:48:01;;;;;;;19.52;7.50;;;;;;;19.18;75.82;101190.94;10305926;28;20070;-63
2022/10/18 00:53:07;;;;;;;17.85;8.10;;;;;;;19.23;75.82;101203.94;10306091;28;20133;-62
2022/10/18 00:58:11;;;;;;;13.32;6.90;;;;;;;19.10;76.12;101196.63;10298871;28;20076;-62
2022/10/18 01:03:12;;;;;;;17.77;7.50;;;;;;;19.06;76.43;101181.75;10305006;28;20515;-63
2022/10/18 01:08:37;;;;;;;14.55;8.00;;;;;;;18.80;77.25;101186.16;10310992;28;20476;-62
2022/10/18 01:13:53;;;;;;;20.70;9.82;;;;;;;18.68;77.71;101176.06;10299627;28;20049;-62
2022/10/18 01:19:25;;;;;;;22.47;10.83;;;;;;;18.71;77.87;101168.31;10302034;28;20057;-61
2022/10/18 01:25:00;;;;;;;17.52;9.90;;;;;;;18.53;78.26;101168.94;10308348;28;20450;-61
2022/10/18 01:30:33;;;;;;;21.73;10.98;;;;;;;18.55;78.51;101176.91;10293350;28;20050;-60
2022/10/18 01:35:41;;;;;;;21.65;11.13;;;;;;;18.59;78.43;101161.84;10301598;28;20133;-61
2022/10/18 01:40:46;;;;;;;27.50;11.90;;;;;;;18.34;79.23;101151.53;10300091;28;20468;-61
2022/10/18 01:45:48;;;;;;;19.70;10.50;;;;;;;18.49;78.67;101153.25;10306468;28;20056;-61
2022/10/18 01:50:51;;;;;;;25.88;12.35;;;;;;;18.69;78.21;101153.25;10303779;28;20074;-61
2022/10/18 01:56:24;;;;;;;24.08;12.55;;;;;;;18.76;78.20;101151.34;10301776;28;20137;-62
2022/10/18 02:01:51;;;;;;;25.73;14.73;;;;;;;18.80;78.08;101149.94;10293160;28;20535;-61
2022/10/18 02:07:01;;;;;;;27.93;13.27;;;;;;;18.86;77.95;101154.53;10302328;28;20145;-61
2022/10/18 02:12:06;;;;;;;23.08;12.80;;;;;;;18.81;78.18;101154.31;10304872;28;20060;-61
2022/10/18 02:17:10;;;;;;;27.30;12.02;;;;;;;18.66;78.45;101153.66;10287269;28;20055;-61
2022/10/18 02:22:13;;;;;;;29.40;13.70;;;;;;;18.57;78.81;101161.19;10299904;28;20061;-61
2022/10/18 02:27:15;;;;;;;27.00;13.85;;;;;;;18.70;78.50;101153.03;10302588;28;20138;-61
2022/10/18 02:32:24;;;;;;;22.67;12.60;;;;;;;18.86;78.18;101130.00;10301504;28;20153;-61
2022/10/18 02:37:31;;;;;;;26.75;13.30;;;;;;;18.92;78.00;101126.44;10299093;28;20141;-61
2022/10/18 02:42:38;;;;;;;29.30;14.30;;;;;;;18.90;78.18;101123.09;10298181;28;20477;-63
2022/10/18 02:47:40;;;;;;;30.40;14.23;;;;;;;18.95;78.07;101133.34;10299320;28;20166;-62
2022/10/18 02:52:41;;;;;;;29.00;13.63;;;;;;;18.98;78.10;101136.47;10301168;28;20174;-61
2022/10/18 02:57:43;;;;;;;30.45;14.32;;;;;;;19.07;77.99;101133.53;10304380;28;20149;-61
2022/10/18 03:02:44;;;;;;;28.10;13.63;;;;;;;19.07;78.00;101131.63;10301685;28;20046;-62
2022/10/18 03:07:45;;;;;;;30.35;14.90;;;;;;;19.10;77.89;101130.38;10299404;28;20174;-62
2022/10/18 03:12:47;;;;;;;26.63;15.40;;;;;;;19.14;77.74;101143.38;10290827;28;20141;-61
2022/10/18 03:17:48;;;;;;;25.25;14.52;;;;;;;19.00;78.26;101147.16;10296964;28;20133;-61
2022/10/18 03:22:49;;;;;;;28.27;14.48;;;;;;;19.01;78.14;101146.09;10305588;28;20043;-61
2022/10/18 03:27:51;;;;;;;24.20;12.10;;;;;;;19.09;78.11;101145.03;10300505;28;20073;-62
2022/10/18 03:32:53;;;;;;;24.70;11.52;;;;;;;19.14;78.03;101164.34;10309526;28;20134;-62
2022/10/18 03:37:54;;;;;;;13.07;9.35;;;;;;;18.85;79.27;101214.66;10304971;28;20126;-62
2022/10/18 03:42:56;;;;;;;13.18;3.85;;;;;;;18.41;80.51;101220.44;10299120;28;20051;-65
2022/10/18 03:47:57;;;;;;;7.25;1.23;;;;;;;18.15;81.13;101174.13;10307564;28;20134;-65
2022/10/18 03:52:58;;;;;;;8.20;0.70;;;;;;;18.07;81.11;101177.88;10309847;28;20057;-66
2022/10/18 03:58:00;;;;;;;5.90;0.40;;;;;;;18.10;81.17;101152.97;10307081;28;20126;-67
2022/10/18 04:03:01;;;;;;;7.15;0.82;;;;;;;18.07;80.79;101167.00;10289363;28;20063;-66
2022/10/18 04:08:03;;;;;;;3.75;0.50;;;;;;;17.98;81.08;101155.44;10306439;28;20050;-67
2022/10/18 04:13:06;;;;;;;3.38;0.95;;;;;;;17.90;80.65;101166.53;10291411;28;20062;-66
2022/10/18 04:18:07;;;;;;;5.20;0.20;;;;;;;17.78;80.82;101163.50;10309120;28;20819;-66
2022/10/18 04:23:08;;;;;;;1.10;0.30;;;;;;;17.80;80.91;101150.56;10305483;28;20074;-66
2022/10/18 04:28:10;;;;;;;2.90;0.50;;;;;;;17.90;80.43;101162.97;10285225;28;20129;-65
2022/10/18 04:33:11;;;;;;;2.47;0.40;;;;;;;17.84;80.41;101168.16;10287672;28;20047;-65
2022/10/18 04:38:13;;;;;;;3.17;0.40;;;;;;;17.58;81.71;101209.66;10304373;28;20134;-66
2022/10/18 04:43:15;;;;;;;5.38;1.77;;;;;;;17.76;81.12;101211.00;10305540;28;20058;-67
2022/10/18 04:48:17;;;;;;;4.25;0.70;;;;;;;17.93;80.75;101204.22;10305067;28;20096;-66
2022/10/18 04:53:18;;;;;;;6.00;1.00;;;;;;;18.02;80.66;101193.97;10304672;28;20078;-68
2022/10/18 04:58:20;;;;;;;7.10;0.93;;;;;;;18.07;80.38;101199.66;10292126;28;20086;-66
2022/10/18 05:03:21;;;;;;;6.20;0.98;;;;;;;18.12;80.56;101204.47;10278832;28;20169;-68
2022/10/18 05:08:23;;;;;;;8.43;1.05;;;;;;;18.08;80.51;101203.19;10299317;28;20058;-67
2022/10/18 05:13:24;;;;;;;5.60;0.70;;;;;;;18.06;81.00;101199.84;10303132;28;20133;-68
2022/10/18 05:18:26;;;;;;;4.32;0.57;;;;;;;17.98;81.09;101192.69;10297466;28;20145;-67
2022/10/18 05:23:27;;;;;;;12.07;1.67;;;;;;;18.01;80.82;101197.75;10301202;28;20142;-66
2022/10/18 05:28:29;;;;;;;4.07;0.50;;;;;;;17.84;81.03;101195.38;10307016;28;20593;-66
2022/10/18 05:33:46;;;;;;;9.38;1.65;;;;;;;17.94;80.44;101180.56;10309385;28;20485;-66
2022/10/18 05:38:47;;;;;;;4.95;0.70;;;;;;;17.97;80.57;101170.09;10310172;28;20134;-66
2022/10/18 05:43:48;;;;;;;3.60;0.60;;;;;;;17.96;80.62;101159.44;10305614;28;20137;-66
2022/10/18 05:48:50;;;;;;;6.82;0.82;;;;;;;17.85;80.46;101160.84;10281517;28;20569;-66
2022/10/18 05:58:26;;;;;;;5.05;0.60;;;;;;;17.79;80.58;101170.66;10529187;27;20116;-72
2022/10/18 06:03:29;;;;;;;4.75;1.27;;;;;;;17.80;80.49;101160.59;10462371;28;20037;-73
2022/10/18 06:08:31;;;;;;;6.68;1.30;;;;;;;17.71;81.00;101170.78;10440609;28;20048;-74
2022/10/18 06:13:33;;;;;;;4.85;1.88;;;;;;;17.78;80.86;101176.28;10455712;28;20775;-73
2022/10/18 06:18:34;;;;;;;4.28;1.80;;;;;;;17.56;81.34;101200.88;10444325;28;21330;-72
2022/10/18 06:23:36;;;;;;;5.63;1.70;;;;;;;17.51;81.70;101227.81;10436480;28;20515;-73
2022/10/18 06:28:37;;;;;;;19.85;3.20;;;;;;;17.60;81.76;101187.72;10446226;28;20098;-73
2022/10/18 06:33:39;;;;;;;6.00;2.50;;;;;;;17.57;82.00;101209.84;10436870;28;20504;-74
2022/10/18 06:38:41;;;;;;;7.80;2.20;;;;;;;17.65;81.75;101198.81;10433648;28;20135;-62
2022/10/18 06:43:43;;;;;;;10.38;2.72;;;;;;;17.74;81.53;101191.34;10431838;28;20045;-63
2022/10/18 06:48:45;;;;;;;8.07;2.03;;;;;;;17.69;82.01;101199.25;10448155;28;20124;-64
2022/10/18 06:53:46;;;;;;;7.35;2.30;;;;;;;17.59;82.27;101224.91;10441899;28;20136;-64
2022/10/18 06:59:06;;;;;;;11.13;2.20;;;;;;;17.49;82.55;101238.03;10432181;28;20638;-64
2022/10/18 07:04:07;;;;;;;12.15;1.95;;;;;;;17.44;83.03;101246.81;10443361;28;20128;-64
2022/10/18 07:09:09;;;;;;;7.82;2.03;;;;;;;17.44;83.14;101251.41;10411865;28;20108;-62
2022/10/18 07:14:10;;;;;;;7.35;1.63;;;;;;;17.50;82.84;101261.47;10418909;28;20144;-64
2022/10/18 07:19:16;;;;;;;11.93;2.40;;;;;;;17.67;82.64;101261.97;10413332;28;20072;-68
2022/10/18 07:24:18;;;;;;;12.45;2.83;;;;;;;17.88;82.24;101236.59;10414580;28;20045;-65
2022/10/18 07:29:19;;;;;;;9.95;1.95;;;;;;;18.03;82.22;101248.19;10405480;28;20136;-73
2022/10/18 07:34:20;;;;;;;9.20;2.45;;;;;;;18.14;81.89;101251.38;10414006;28;20061;-69
2022/10/18 07:39:22;;;;;;;6.50;1.90;;;;;;;17.81;83.17;101261.03;10415769;28;20462;-70
2022/10/18 07:44:23;;;;;;;7.57;1.40;;;;;;;17.92;82.53;101261.53;10410390;28;20049;-69
2022/10/18 07:49:24;;;;;;;7.05;3.20;;;;;;;17.83;83.16;101268.97;10411672;28;20496;-70
2022/10/18 07:54:26;;;;;;;13.60;2.90;;;;;;;17.84;83.08;101271.53;10410388;28;20491;-69
2022/10/18 07:59:27;;;;;;;11.50;3.05;;;;;;;18.08;82.65;101271.22;10405657;28;20585;-68
2022/10/18 08:04:29;;;;;;;16.10;4.47;;;;;;;18.25;82.38;101256.22;10406554;28;20496;-68
2022/10/18 08:09:30;;;;;;;14.75;4.70;;;;;;;18.43;82.45;101272.81;10411588;28;20430;-69
2022/10/18 08:14:31;;;;;;;11.85;3.15;;;;;;;18.58;82.57;101275.38;10418913;28;20076;-69
2022/10/18 08:19:33;;;;;;;10.25;3.38;;;;;;;18.71;82.48;101277.28;10411325;28;20072;-68
2022/10/18 08:24:34;;;;;;;15.38;4.18;;;;;;;18.83;82.52;101283.81;10405193;28;20124;-68
2022/10/18 08:29:36;;;;;;;11.73;3.47;;;;;;;18.99;82.14;101279.84;10413981;28;20046;-69
2022/10/18 08:34:37;;;;;;;23.52;5.55;;;;;;;19.05;82.16;101286.34;10411608;28;20037;-70
2022/10/18 08:39:43;;;;;;;15.50;5.00;;;;;;;18.93;82.23;101302.47;10404060;28;20971;-69
2022/10/18 08:44:50;;;;;;;16.17;5.68;;;;;;;19.03;82.25;101294.72;10414860;28;20053;-71
2022/10/18 08:50:03;;;;;;;16.55;5.25;;;;;;;19.20;82.15;101288.88;10406920;28;20077;-70
2022/10/18 08:55:19;;;;;;;17.40;5.25;;;;;;;19.32;82.14;101297.25;10409938;28;20046;-70
2022/10/18 09:00:23;;;;;;;19.52;4.60;;;;;;;19.50;81.86;101294.72;10408535;28;20041;-68
2022/10/18 09:05:35;;;;;;;12.77;4.25;;;;;;;19.60;82.05;101300.56;10411590;28;20033;-68
2022/10/18 09:10:45;;;;;;;19.55;6.63;;;;;;;19.68;82.43;101302.22;10406672;28;20103;-69
2022/10/18 09:16:00;;;;;;;14.90;7.20;;;;;;;19.81;82.23;101307.69;10412631;28;20050;-67
2022/10/18 09:21:30;;;;;;;11.85;5.35;;;;;;;19.79;82.06;101314.44;10405504;28;20043;-68
2022/10/18 09:26:47;;;;;;;17.08;5.65;;;;;;;19.80;82.15;101321.56;10404240;28;20061;-70
2022/10/18 09:32:02;;;;;;;3.95;1.52;;;;;;;19.84;81.69;101320.06;10415922;28;20053;-76
2022/10/18 09:37:08;;;;;;;3.33;1.80;;;;;;;19.75;82.36;101322.19;10398639;28;20057;-76
2022/10/18 09:42:34;;;;;;;2.75;1.02;;;;;;;19.72;81.71;101324.50;10399514;28;20123;-75
2022/10/18 09:47:42;;;;;;;1.30;0.60;;;;;;;19.72;81.48;101329.97;10409390;28;20080;-76
2022/10/18 09:52:50;;;;;;;2.55;1.48;;;;;;;19.88;81.48;101323.22;10420192;28;20076;-76
2022/10/18 09:57:59;;;;;;;4.03;1.55;;;;;;;20.06;81.06;101323.38;10385436;28;20049;-75
2022/10/18 10:03:05;;;;;;;2.50;1.45;;;;;;;19.97;81.06;101322.78;10397232;28;20075;-69
2022/10/18 10:08:07;;;;;;;3.03;0.75;;;;;;;20.01;81.10;101334.09;10408924;28;20491;-71
2022/10/18 10:13:21;;;;;;;3.05;1.00;;;;;;;19.92;81.09;101338.09;10406361;28;20046;-70
2022/10/18 10:18:27;;;;;;;6.85;1.25;;;;;;;20.08;81.16;101334.91;10416939;28;20060;-69
2022/10/18 10:23:34;;;;;;;2.03;0.88;;;;;;;20.12;80.76;101344.38;10399109;28;20527;-69
2022/10/18 10:28:45;;;;;;;3.88;0.70;;;;;;;20.20;80.50;101355.03;10416029;28;20558;-68
2022/10/18 10:33:47;;;;;;;4.18;0.60;;;;;;;20.15;80.40;101356.75;10371777;28;20780;-69
2022/10/18 10:39:23;;;;;;;0.90;0.50;;;;;;;20.01;81.29;101358.66;10383989;28;20136;-68
2022/10/18 10:44:33;;;;;;;0.60;0.40;;;;;;;20.24;81.02;101362.78;10374350;28;20041;-69
2022/10/18 10:49:46;;;;;;;1.70;0.22;;;;;;;20.18;80.65;101359.88;10396827;28;20637;-69
2022/10/18 10:54:48;;;;;;;1.77;0.25;;;;;;;20.27;80.83;101360.47;10414337;28;20130;-69
2022/10/18 10:59:55;;;;;;;0.40;0.10;;;;;;;20.31;80.50;101364.44;10414178;28;20044;-69
2022/10/18 11:05:24;;;;;;;1.58;0.20;;;;;;;20.54;80.00;101355.75;10416021;28;20045;-69
2022/10/18 11:10:33;;;;;;;0.80;0.20;;;;;;;20.82;79.24;101357.31;10404613;28;20098;-69
2022/10/18 11:15:40;;;;;;;1.00;0.00;;;;;;;20.95;78.79;101356.38;10411961;28;20081;-69
2022/10/18 11:21:00;;;;;;;1.48;0.10;;;;;;;20.88;79.45;101350.97;10428023;28;20084;-69
2022/10/18 11:26:10;;;;;;;2.45;0.10;;;;;;;21.04;79.33;101346.03;10400763;28;20119;-69
2022/10/18 11:31:45;;;;;;;1.13;0.10;;;;;;;21.23;78.45;101341.47;10403849;28;20551;-69
2022/10/18 11:36:59;;;;;;;0.30;0.10;;;;;;;21.18;78.62;101351.16;10409989;28;20183;-69
2022/10/18 11:42:46;;;;;;;0.20;0.10;;;;;;;21.15;78.64;101353.53;10402412;28;20139;-69
2022/10/18 11:48:22;;;;;;;1.88;0.10;;;;;;;21.38;78.31;101355.66;10405945;28;20131;-68
2022/10/18 11:53:45;;;;;;;2.67;0.10;;;;;;;21.69;77.72;101346.56;10405676;28;20492;-68
2022/10/18 11:59:24;;;;;;;1.40;0.10;;;;;;;21.91;77.57;101346.13;10413705;28;20417;-64
2022/10/18 12:04:33;;;;;;;0.20;0.20;;;;;;;21.89;76.66;101340.88;10401397;28;20052;-68
2022/10/18 12:09:42;;;;;;;3.88;0.10;;;;;;;21.92;76.86;101345.91;10409317;28;20129;-68
2022/10/18 12:14:58;;;;;;;2.15;0.10;;;;;;;22.19;76.16;101342.88;10406997;28;20057;-68
2022/10/18 12:20:06;;;;;;;0.83;0.10;;;;;;;22.48;75.86;101337.72;10409604;28;20077;-68
2022/10/18 12:25:16;;;;;;;0.15;0.10;;;;;;;22.76;75.42;101337.09;10406588;28;20076;-68
2022/10/18 12:30:36;;;;;;;0.80;0.10;;;;;;;22.88;75.19;101327.00;10417467;28;20075;-68
2022/10/18 12:36:04;;;;;;;1.45;0.10;;;;;;;22.90;74.65;101315.81;10400939;28;20033;-69
2022/10/18 12:41:06;;;;;;;1.55;0.20;;;;;;;22.69;74.47;101325.38;10395630;28;20132;-69
2022/10/18 12:46:10;;;;;;;1.25;0.10;;;;;;;22.45;74.17;101325.28;10407512;28;20132;-69
2022/10/18 12:51:21;;;;;;;1.70;0.60;;;;;;;22.31;73.85;101329.28;10413449;28;20075;-68
2022/10/18 12:56:32;;;;;;;0.90;0.55;;;;;;;22.23;73.76;101315.84;10408175;28;20041;-69
2022/10/18 13:01:49;;;;;;;0.63;0.28;;;;;;;22.15;73.76;101322.47;10416467;28;20095;-68
2022/10/18 13:07:18;;;;;;;1.35;0.20;;;;;;;22.16;73.84;101310.47;10407646;28;20057;-69
2022/10/18 13:12:20;;;;;;;0.98;0.20;;;;;;;22.23;73.97;101319.41;10406085;28;20038;-70
2022/10/18 13:17:30;;;;;;;0.52;0.22;;;;;;;22.25;73.51;101313.75;10411954;28;20124;-70
2022/10/18 13:22:47;;;;;;;1.77;0.15;;;;;;;22.29;73.47;101321.28;10410808;28;20456;-70
2022/10/18 13:28:01;;;;;;;0.30;0.20;;;;;;;22.35;73.29;101319.53;10402921;28;20053;-71
2022/10/18 13:33:32;;;;;;;2.58;0.20;;;;;;;22.26;73.46;101312.69;10403353;28;20060;-71
2022/10/18 13:38:56;;;;;;;0.60;0.10;;;;;;;22.29;73.14;101321.28;10402744;28;20102;-71
2022/10/18 13:44:10;;;;;;;1.42;0.20;;;;;;;22.67;72.01;101322.03;10404529;28;20060;-71
2022/10/18 13:49:20;;;;;;;2.17;0.20;;;;;;;22.90;71.29;101319.38;10403145;28;20057;-72
2022/10/18 13:54:36;;;;;;;0.88;0.10;;;;;;;22.97;70.61;101314.63;10372739;28;20136;-71
2022/10/18 13:59:49;;;;;;;5.13;0.17;;;;;;;22.81;70.38;101325.41;10409437;28;20125;-72
2022/10/18 14:05:12;;;;;;;1.85;0.20;;;;;;;22.82;70.29;101327.09;10414780;28;20038;-70
2022/10/18 14:10:57;;;;;;;2.58;0.45;;;;;;;22.90;70.12;101333.09;10411338;28;20097;-71
2022/10/18 14:16:15;;;;;;;2.85;0.20;;;;;;;22.90;70.23;101322.13;10408022;28;20061;-70
2022/10/18 14:21:28;;;;;;;0.95;0.20;;;;;;;22.92;70.03;101330.94;10413390;28;20462;-70
2022/10/18 14:26:31;;;;;;;0.82;0.30;;;;;;;23.03;70.19;101334.00;10419037;28;20045;-70
2022/10/18 14:31:33;;;;;;;1.60;0.47;;;;;;;23.10;69.44;101323.75;10419591;28;20068;-69
2022/10/18 14:36:39;;;;;;;0.20;0.20;;;;;;;23.29;69.33;101330.81;10413299;28;20041;-70
2022/10/18 14:41:53;;;;;;;0.35;0.13;;;;;;;23.39;68.64;101324.75;10410606;28;20660;-70
2022/10/18 14:47:16;;;;;;;0.45;0.20;;;;;;;23.39;68.94;101337.63;10417227;28;20607;-70
2022/10/18 14:52:21;;;;;;;1.08;0.22;;;;;;;23.39;68.50;101334.91;10382408;28;20407;-72
2022/10/18 14:57:29;;;;;;;1.52;1.42;;;;;;;23.29;68.54;101340.97;10410655;28;20053;-70
2022/10/18 15:02:35;;;;;;;1.77;0.20;;;;;;;23.23;68.24;101341.91;10407585;28;20112;-70
2022/10/18 15:07:37;;;;;;;3.22;1.67;;;;;;;23.17;68.76;101335.47;10411683;28;20132;-70
2022/10/18 15:12:41;;;;;;;1.75;0.45;;;;;;;23.08;68.64;101356.06;10409563;28;20470;-70
2022/10/18 15:18:04;;;;;;;1.85;0.30;;;;;;;22.94;68.69;101352.66;10405266;28;20071;-70
2022/10/18 15:23:22;;;;;;;4.10;0.50;;;;;;;22.83;68.89;101351.56;10409633;28;20041;-69
2022/10/18 15:28:30;;;;;;;0.80;0.50;;;;;;;22.71;69.06;101359.75;10403642;28;20075;-69
2022/10/18 15:33:35;;;;;;;0.90;0.20;;;;;;;22.58;69.19;101344.28;10408453;28;20037;-69
2022/10/18 15:38:36;;;;;;;1.77;0.20;;;;;;;22.36;68.84;101357.66;10405514;28;20046;-73
2022/10/18 15:43:38;;;;;;;2.67;0.30;;;;;;;22.15;68.96;101356.16;10406107;28;20089;-70
2022/10/18 15:48:40;;;;;;;2.78;0.30;;;;;;;21.88;69.44;101355.66;10399437;28;20048;-71
2022/10/18 15:53:48;;;;;;;1.83;0.30;;;;;;;21.78;69.24;101361.63;10406910;28;20077;-71
2022/10/18 15:58:50;;;;;;;3.40;0.22;;;;;;;21.78;69.33;101345.22;10409760;28;20112;-71
2022/10/18 16:03:51;;;;;;;1.33;0.30;;;;;;;21.72;69.11;101348.88;10410821;28;20049;-70
2022/10/18 16:08:58;;;;;;;1.88;0.30;;;;;;;21.62;69.35;101353.16;10412044;28;20049;-70
2022/10/18 16:13:59;;;;;;;3.92;0.35;;;;;;;21.47;69.60;101351.63;10407917;28;20046;-70
2022/10/18 16:19:02;;;;;;;1.40;0.60;;;;;;;21.34;70.35;101349.78;10400884;28;20131;-71
2022/10/18 16:24:04;;;;;;;4.03;1.15;;;;;;;21.19;70.72;101347.38;10401802;28;20049;-71
2022/10/18 16:29:10;;;;;;;3.90;2.03;;;;;;;21.03;70.74;101347.06;10420493;28;20045;-71
2022/10/18 16:34:13;;;;;;;4.28;1.50;;;;;;;20.87;71.50;101362.09;10405495;28;20059;-73
2022/10/18 16:39:16;;;;;;;2.67;1.48;;;;;;;20.70;71.70;101365.38;10401365;28;20578;-72
2022/10/18 16:44:18;;;;;;;4.38;1.98;;;;;;;20.52;72.03;101368.78;10403015;28;20686;-65
2022/10/18 16:49:22;;;;;;;2.28;1.60;;;;;;;20.35;72.17;101379.34;10404520;28;20054;-63
2022/10/18 16:54:25;;;;;;;2.47;1.15;;;;;;;20.15;72.72;101384.03;10412371;28;20053;-64
2022/10/18 16:59:29;;;;;;;4.97;1.55;;;;;;;19.93;73.40;101384.28;10408264;28;20114;-64
2022/10/18 17:04:30;;;;;;;3.38;2.10;;;;;;;19.78;73.60;101395.44;10406070;28;20052;-63
2022/10/18 17:09:33;;;;;;;4.55;3.15;;;;;;;19.61;73.67;101389.53;10405487;28;20144;-63
2022/10/18 17:14:35;;;;;;;7.13;2.97;;;;;;;19.49;74.10;101407.59;10403767;28;20100;-63
2022/10/18 17:19:37;;;;;;;9.65;3.80;;;;;;;19.36;74.40;101408.41;10405523;28;20047;-65
2022/10/18 17:24:38;;;;;;;6.75;3.90;;;;;;;19.28;74.46;101421.41;10396771;28;20128;-65
2022/10/18 17:29:39;;;;;;;6.15;3.95;;;;;;;19.24;74.57;101420.97;10399330;28;20042;-65
2022/10/18 17:34:42;;;;;;;5.28;3.78;;;;;;;19.20;74.63;101423.28;10404266;28;20103;-66
2022/10/18 17:39:43;;;;;;;9.13;4.60;;;;;;;19.13;74.85;101419.69;10407853;28;20065;-66
2022/10/18 17:44:45;;;;;;;11.45;6.28;;;;;;;19.07;74.93;101420.50;10412336;28;20168;-67
2022/10/18 17:49:46;;;;;;;9.18;6.53;;;;;;;18.99;75.04;101427.00;10409413;28;20069;-65
2022/10/18 17:54:48;;;;;;;11.30;6.70;;;;;;;18.93;75.18;101422.38;10409882;28;20065;-65
2022/10/18 17:59:49;;;;;;;12.82;8.80;;;;;;;18.80;75.55;101419.63;10404130;28;20136;-67
2022/10/18 18:04:53;;;;;;;16.48;8.18;;;;;;;18.74;75.64;101432.13;10409054;28;20132;-67
2022/10/18 18:09:54;;;;;;;8.35;4.07;;;;;;;18.60;75.82;101430.38;10402590;28;20073;-67
2022/10/18 18:14:55;;;;;;;10.48;4.88;;;;;;;18.54;75.66;101444.81;10404384;28;20072;-70
2022/10/18 18:19:57;;;;;;;10.95;5.40;;;;;;;18.38;76.07;101437.81;10406519;28;20125;-68
2022/10/18 18:24:58;;;;;;;9.20;4.45;;;;;;;18.27;76.35;101436.50;10393532;28;20141;-67
2022/10/18 18:30:00;;;;;;;9.40;4.47;;;;;;;18.24;76.13;101435.00;10406467;28;20041;-68
2022/10/18 18:35:02;;;;;;;6.50;4.13;;;;;;;18.13;76.22;101426.59;10399592;28;20064;-67
2022/10/18 18:40:04;;;;;;;9.07;4.07;;;;;;;18.15;76.60;101428.06;10397528;28;20129;-66
2022/10/18 18:45:05;;;;;;;6.60;3.67;;;;;;;18.18;76.50;101415.91;10399725;28;20037;-65
2022/10/18 18:50:07;;;;;;;7.80;3.78;;;;;;;18.19;76.65;101421.16;10395226;28;20076;-66
2022/10/18 18:55:08;;;;;;;9.77;4.20;;;;;;;18.19;76.40;101426.63;10394627;28;20077;-67
2022/10/18 19:00:12;;;;;;;5.63;3.75;;;;;;;18.15;76.60;101429.94;10399250;28;20053;-67
2022/10/18 19:05:13;;;;;;;5.10;3.72;;;;;;;18.10;76.50;101435.97;10412090;28;20133;-66
2022/10/18 19:10:15;;;;;;;5.72;3.72;;;;;;;18.02;76.62;101427.97;10412023;28;20136;-68
2022/10/18 19:15:17;;;;;;;13.35;5.50;;;;;;;17.92;76.67;101438.34;10411961;28;20135;-66
2022/10/18 19:20:19;;;;;;;6.78;4.97;;;;;;;17.83;76.96;101429.44;10408629;28;20136;-65
2022/10/18 19:25:20;;;;;;;14.48;5.85;;;;;;;17.84;76.79;101437.44;10410192;28;20072;-70
2022/10/18 19:30:27;;;;;;;8.93;5.25;;;;;;;17.89;76.67;101433.28;10406369;28;20081;-69
2022/10/18 19:35:28;;;;;;;9.52;4.38;;;;;;;17.87;76.51;101436.25;10409440;28;20544;-68
2022/10/18 19:40:30;;;;;;;8.10;5.63;;;;;;;17.81;76.38;101440.56;10409850;28;20252;-71
2022/10/18 19:45:31;;;;;;;11.35;6.68;;;;;;;17.80;76.37;101441.56;10411779;28;20037;-70
2022/10/18 19:50:34;;;;;;;8.15;6.22;;;;;;;17.76;76.08;101434.03;10402520;28;20073;-68
2022/10/18 19:55:35;;;;;;;11.20;6.47;;;;;;;17.71;76.10;101429.16;10412076;28;20132;-69
2022/10/18 20:00:36;;;;;;;14.65;6.70;;;;;;;17.59;76.43;101434.28;10402825;28;20584;-68
2022/10/18 20:05:38;;;;;;;13.65;7.10;;;;;;;17.52;76.77;101443.44;10410837;28;20073;-69
2022/10/18 20:10:39;;;;;;;10.23;6.25;;;;;;;17.44;76.82;101445.25;10410976;28;20139;-70
2022/10/18 20:15:41;;;;;;;14.93;6.15;;;;;;;17.44;76.95;101444.41;10407052;28;20073;-70
2022/10/18 20:20:43;;;;;;;11.88;7.03;;;;;;;17.44;76.87;101445.25;10405651;28;20098;-70
2022/10/18 20:25:56;;;;;;;12.95;5.85;;;;;;;17.41;76.57;101445.63;10414899;28;20048;-68
2022/10/18 20:31:05;;;;;;;9.95;6.00;;;;;;;17.36;76.48;101439.94;10406442;28;20132;-68
2022/10/18 20:36:12;;;;;;;15.80;6.45;;;;;;;17.12;76.86;101445.72;10401703;28;20048;-69
2022/10/18 20:41:28;;;;;;;12.38;6.22;;;;;;;17.11;76.59;101442.19;10405421;28;20136;-69
2022/10/18 20:46:31;;;;;;;11.02;6.28;;;;;;;17.05;76.55;101449.22;10385186;28;20040;-69
2022/10/18 20:51:33;;;;;;;17.73;8.70;;;;;;;16.97;76.60;101448.50;10404432;28;20045;-68
2022/10/18 20:56:37;;;;;;;15.35;8.60;;;;;;;16.80;76.79;101448.66;10409629;28;20476;-70
2022/10/18 21:01:38;;;;;;;16.10;8.27;;;;;;;16.75;77.00;101451.13;10408493;28;20124;-68
2022/10/18 21:06:42;;;;;;;15.63;8.10;;;;;;;16.64;76.94;101457.88;10408862;28;20038;-68
2022/10/18 21:11:48;;;;;;;15.80;8.40;;;;;;;16.58;77.17;101460.50;10404410;28;20083;-70
2022/10/18 21:16:51;;;;;;;13.13;8.30;;;;;;;16.59;76.95;101456.78;10404767;28;20124;-69
2022/10/18 21:21:55;;;;;;;12.77;8.00;;;;;;;16.51;76.62;101460.44;10414841;28;20794;-69
2022/10/18 21:26:56;;;;;;;16.77;8.15;;;;;;;16.41;77.06;101462.56;10404161;28;20059;-69
2022/10/18 21:31:58;;;;;;;18.15;8.13;;;;;;;16.34;77.49;101456.22;10408700;28;20120;-67
2022/10/18 21:36:59;;;;;;;16.40;8.40;;;;;;;16.23;77.53;101452.06;10403947;28;20136;-68
2022/10/18 21:42:01;;;;;;;22.80;9.07;;;;;;;16.15;77.92;101447.59;10406346;28;20052;-68
2022/10/18 21:47:02;;;;;;;18.35;8.27;;;;;;;16.10;78.16;101441.06;10399139;28;20044;-68
2022/10/18 21:52:04;;;;;;;13.15;8.18;;;;;;;16.10;77.72;101436.47;10395516;28;20071;-69
2022/10/18 21:57:05;;;;;;;15.93;8.45;;;;;;;16.12;77.88;101445.25;10405257;28;20697;-69
2022/10/18 22:02:07;;;;;;;13.57;8.00;;;;;;;16.17;77.61;101439.25;10402323;28;20067;-69
2022/10/18 22:07:08;;;;;;;15.77;7.88;;;;;;;16.21;77.41;101427.88;10407916;28;20568;-69
2022/10/18 22:12:09;;;;;;;17.35;8.45;;;;;;;16.21;77.25;101429.72;10404979;28;20128;-68
2022/10/18 22:17:11;;;;;;;18.38;8.65;;;;;;;16.20;77.13;101428.88;10407849;28;20042;-69
2022/10/18 22:22:12;;;;;;;19.63;9.65;;;;;;;16.23;76.94;101428.53;10398789;28;20054;-69
2022/10/18 22:27:14;;;;;;;16.38;8.32;;;;;;;16.18;77.00;101430.09;10400197;28;20633;-70
2022/10/18 22:32:15;;;;;;;19.73;9.70;;;;;;;16.20;76.60;101434.31;10415022;28;20073;-69
2022/10/18 22:37:16;;;;;;;19.90;10.10;;;;;;;16.19;76.62;101429.06;10405098;28;20163;-69
2022/10/18 22:42:18;;;;;;;23.48;10.32;;;;;;;16.16;76.80;101430.28;10410049;28;20075;-69
2022/10/18 22:47:19;;;;;;;21.33;11.23;;;;;;;16.20;76.92;101417.19;10414023;28;20034;-68
2022/10/18 22:52:20;;;;;;;24.77;10.40;;;;;;;16.22;76.43;101412.44;10412551;28;20124;-68
2022/10/18 22:57:22;;;;;;;20.75;10.85;;;;;;;16.24;76.61;101423.94;10409574;28;20072;-68
2022/10/18 23:02:23;;;;;;;24.27;11.00;;;;;;;16.26;76.61;101424.59;10421300;28;20492;-68
2022/10/18 23:07:25;;;;;;;21.20;11.43;;;;;;;16.33;76.21;101421.94;10414131;28;20087;-68
2022/10/18 23:12:26;;;;;;;18.83;10.50;;;;;;;16.37;76.01;101425.97;10379029;28;20173;-68
2022/10/18 23:17:27;;;;;;;23.38;11.00;;;;;;;16.39;76.03;101432.91;10417842;28;20099;-68
2022/10/18 23:22:29;;;;;;;24.25;11.68;;;;;;;16.30;76.35;101431.31;10406693;28;20046;-68